sensor_id;sensor_type;location;lat;lon;timestamp;P1;durP1;ratioP1;P2;durP2;ratioP2
13793;SDS011;31160;49.500;7.772;2024-02-21T00:02:00;14.13;;;5.80;;
13793;SDS011;31160;49.500;7.772;2024-02-21T00:04:28;14.63;;;6.00;;
13793;SDS011;31160;49.500;7.772;2024-02-21T00:06:56;16.73;;;5.87;;
13793;SDS011;31160;49.500;7.772;2024-02-21T00:09:23;11.70;;;5.90;;
13793;SDS011;31160;49.500;7.772;2024-02-21T00:11:51;14.10;;;5.80;;
13793;SDS011;31160;49.500;7.772;2024-02-21T00:14:19;15.40;;;5.87;;
13793;SDS011;31160;49.500;7.772;2024-02-21T00:16:47;12.00;;;5.80;;
13793;SDS011;31160;49.500;7.772;2024-02-21T00:19:15;15.87;;;5.87;;
13793;SDS011;31160;49.500;7.772;2024-02-21T00:21:42;10.40;;;5.60;;
13793;SDS011;31160;49.500;7.772;2024-02-21T00:24:09;14.97;;;6.20;;
13793;SDS011;31160;49.500;7.772;2024-02-21T00:26:35;15.13;;;6.27;;
13793;SDS011;31160;49.500;7.772;2024-02-21T00:29:02;15.93;;;6.20;;
13793;SDS011;31160;49.500;7.772;2024-02-21T00:31:33;14.70;;;6.60;;
13793;SDS011;31160;49.500;7.772;2024-02-21T00:34:00;11.57;;;5.80;;
13793;SDS011;31160;49.500;7.772;2024-02-21T00:36:27;13.50;;;5.90;;
13793;SDS011;31160;49.500;7.772;2024-02-21T00:38:54;12.83;;;5.67;;
13793;SDS011;31160;49.500;7.772;2024-02-21T00:41:21;19.23;;;5.83;;
13793;SDS011;31160;49.500;7.772;2024-02-21T00:43:48;18.73;;;6.07;;
13793;SDS011;31160;49.500;7.772;2024-02-21T00:46:16;11.33;;;5.67;;
13793;SDS011;31160;49.500;7.772;2024-02-21T00:48:43;11.70;;;5.23;;
13793;SDS011;31160;49.500;7.772;2024-02-21T00:51:10;13.70;;;5.30;;
13793;SDS011;31160;49.500;7.772;2024-02-21T00:53:36;11.70;;;4.83;;
13793;SDS011;31160;49.500;7.772;2024-02-21T00:56:05;14.77;;;5.40;;
13793;SDS011;31160;49.500;7.772;2024-02-21T00:58:32;9.77;;;4.60;;
13793;SDS011;31160;49.500;7.772;2024-02-21T01:01:00;11.27;;;4.67;;
13793;SDS011;31160;49.500;7.772;2024-02-21T01:03:27;14.43;;;4.77;;
13793;SDS011;31160;49.500;7.772;2024-02-21T01:05:53;8.97;;;4.43;;
13793;SDS011;31160;49.500;7.772;2024-02-21T01:08:20;9.13;;;4.33;;
13793;SDS011;31160;49.500;7.772;2024-02-21T01:10:47;11.90;;;4.10;;
13793;SDS011;31160;49.500;7.772;2024-02-21T01:13:14;10.23;;;3.87;;
13793;SDS011;31160;49.500;7.772;2024-02-21T01:15:40;18.80;;;5.27;;
13793;SDS011;31160;49.500;7.772;2024-02-21T01:18:07;13.17;;;4.50;;
13793;SDS011;31160;49.500;7.772;2024-02-21T01:20:34;13.13;;;4.63;;
13793;SDS011;31160;49.500;7.772;2024-02-21T01:23:01;13.90;;;4.33;;
13793;SDS011;31160;49.500;7.772;2024-02-21T01:25:27;10.70;;;3.83;;
13793;SDS011;31160;49.500;7.772;2024-02-21T01:27:54;13.47;;;4.20;;
13793;SDS011;31160;49.500;7.772;2024-02-21T01:30:21;13.50;;;4.10;;
13793;SDS011;31160;49.500;7.772;2024-02-21T01:32:48;12.07;;;4.63;;
13793;SDS011;31160;49.500;7.772;2024-02-21T01:35:14;9.43;;;4.40;;
13793;SDS011;31160;49.500;7.772;2024-02-21T01:37:41;11.93;;;4.37;;
13793;SDS011;31160;49.500;7.772;2024-02-21T01:40:08;12.60;;;4.83;;
13793;SDS011;31160;49.500;7.772;2024-02-21T01:42:39;10.93;;;3.93;;
13793;SDS011;31160;49.500;7.772;2024-02-21T01:45:07;11.43;;;4.00;;
13793;SDS011;31160;49.500;7.772;2024-02-21T01:47:34;10.73;;;3.63;;
13793;SDS011;31160;49.500;7.772;2024-02-21T01:50:02;15.63;;;4.00;;
13793;SDS011;31160;49.500;7.772;2024-02-21T01:52:29;9.30;;;3.57;;
13793;SDS011;31160;49.500;7.772;2024-02-21T01:54:57;12.97;;;4.27;;
13793;SDS011;31160;49.500;7.772;2024-02-21T01:57:24;8.60;;;3.50;;
13793;SDS011;31160;49.500;7.772;2024-02-21T01:59:51;9.07;;;3.50;;
13793;SDS011;31160;49.500;7.772;2024-02-21T02:02:18;14.70;;;4.80;;
13793;SDS011;31160;49.500;7.772;2024-02-21T02:04:45;12.50;;;4.20;;
13793;SDS011;31160;49.500;7.772;2024-02-21T02:07:12;12.07;;;4.07;;
13793;SDS011;31160;49.500;7.772;2024-02-21T02:09:39;10.13;;;4.10;;
13793;SDS011;31160;49.500;7.772;2024-02-21T02:12:06;8.80;;;4.03;;
13793;SDS011;31160;49.500;7.772;2024-02-21T02:14:33;12.57;;;4.23;;
13793;SDS011;31160;49.500;7.772;2024-02-21T02:17:00;11.77;;;4.33;;
13793;SDS011;31160;49.500;7.772;2024-02-21T02:19:27;14.63;;;4.30;;
13793;SDS011;31160;49.500;7.772;2024-02-21T02:21:56;10.70;;;4.07;;
13793;SDS011;31160;49.500;7.772;2024-02-21T02:24:35;13.33;;;3.80;;
13793;SDS011;31160;49.500;7.772;2024-02-21T02:27:02;14.37;;;4.20;;
13793;SDS011;31160;49.500;7.772;2024-02-21T02:29:31;8.60;;;3.83;;
13793;SDS011;31160;49.500;7.772;2024-02-21T02:31:58;9.33;;;4.53;;
13793;SDS011;31160;49.500;7.772;2024-02-21T02:34:25;13.23;;;4.17;;
13793;SDS011;31160;49.500;7.772;2024-02-21T02:36:52;9.97;;;4.27;;
13793;SDS011;31160;49.500;7.772;2024-02-21T02:39:20;11.97;;;4.00;;
13793;SDS011;31160;49.500;7.772;2024-02-21T02:41:47;10.10;;;4.53;;
13793;SDS011;31160;49.500;7.772;2024-02-21T02:44:14;18.50;;;3.97;;
13793;SDS011;31160;49.500;7.772;2024-02-21T02:46:41;16.83;;;4.50;;
13793;SDS011;31160;49.500;7.772;2024-02-21T02:49:08;14.13;;;4.37;;
13793;SDS011;31160;49.500;7.772;2024-02-21T02:51:34;14.00;;;4.33;;
13793;SDS011;31160;49.500;7.772;2024-02-21T02:54:02;13.73;;;4.40;;
13793;SDS011;31160;49.500;7.772;2024-02-21T02:56:29;14.03;;;4.57;;
13793;SDS011;31160;49.500;7.772;2024-02-21T02:58:56;10.63;;;4.40;;
13793;SDS011;31160;49.500;7.772;2024-02-21T03:01:23;11.60;;;4.17;;
13793;SDS011;31160;49.500;7.772;2024-02-21T03:03:49;12.90;;;4.07;;
13793;SDS011;31160;49.500;7.772;2024-02-21T03:06:16;15.03;;;4.30;;
13793;SDS011;31160;49.500;7.772;2024-02-21T03:08:43;10.87;;;3.50;;
13793;SDS011;31160;49.500;7.772;2024-02-21T03:11:10;7.83;;;3.97;;
13793;SDS011;31160;49.500;7.772;2024-02-21T03:13:37;13.43;;;3.43;;
13793;SDS011;31160;49.500;7.772;2024-02-21T03:16:04;12.07;;;3.63;;
13793;SDS011;31160;49.500;7.772;2024-02-21T03:18:31;13.53;;;4.10;;
13793;SDS011;31160;49.500;7.772;2024-02-21T03:20:58;12.60;;;3.80;;
13793;SDS011;31160;49.500;7.772;2024-02-21T03:23:25;15.93;;;3.83;;
13793;SDS011;31160;49.500;7.772;2024-02-21T03:25:52;15.10;;;3.80;;
13793;SDS011;31160;49.500;7.772;2024-02-21T03:28:19;12.53;;;4.20;;
13793;SDS011;31160;49.500;7.772;2024-02-21T03:30:46;10.47;;;3.87;;
13793;SDS011;31160;49.500;7.772;2024-02-21T03:33:12;10.47;;;3.43;;
13793;SDS011;31160;49.500;7.772;2024-02-21T03:35:39;8.87;;;3.23;;
13793;SDS011;31160;49.500;7.772;2024-02-21T03:38:06;10.63;;;3.70;;
13793;SDS011;31160;49.500;7.772;2024-02-21T03:40:33;11.87;;;4.03;;
13793;SDS011;31160;49.500;7.772;2024-02-21T03:43:00;9.47;;;3.30;;
13793;SDS011;31160;49.500;7.772;2024-02-21T03:45:26;9.23;;;3.80;;
13793;SDS011;31160;49.500;7.772;2024-02-21T03:47:53;11.20;;;4.07;;
13793;SDS011;31160;49.500;7.772;2024-02-21T03:50:20;9.90;;;3.30;;
13793;SDS011;31160;49.500;7.772;2024-02-21T03:52:47;11.33;;;3.70;;
13793;SDS011;31160;49.500;7.772;2024-02-21T03:55:14;8.73;;;3.40;;
13793;SDS011;31160;49.500;7.772;2024-02-21T03:57:41;7.47;;;3.00;;
13793;SDS011;31160;49.500;7.772;2024-02-21T04:00:07;12.93;;;3.57;;
13793;SDS011;31160;49.500;7.772;2024-02-21T04:02:37;8.43;;;3.47;;
13793;SDS011;31160;49.500;7.772;2024-02-21T04:05:04;13.80;;;3.90;;
13793;SDS011;31160;49.500;7.772;2024-02-21T04:07:31;9.97;;;3.40;;
13793;SDS011;31160;49.500;7.772;2024-02-21T04:09:58;10.37;;;2.80;;
13793;SDS011;31160;49.500;7.772;2024-02-21T04:12:25;7.63;;;3.07;;
13793;SDS011;31160;49.500;7.772;2024-02-21T04:14:52;12.17;;;3.33;;
13793;SDS011;31160;49.500;7.772;2024-02-21T04:17:18;14.90;;;3.60;;
13793;SDS011;31160;49.500;7.772;2024-02-21T04:19:45;11.00;;;3.20;;
13793;SDS011;31160;49.500;7.772;2024-02-21T04:22:12;13.17;;;3.03;;
13793;SDS011;31160;49.500;7.772;2024-02-21T04:24:38;12.47;;;3.30;;
13793;SDS011;31160;49.500;7.772;2024-02-21T04:27:05;15.43;;;3.47;;
13793;SDS011;31160;49.500;7.772;2024-02-21T04:29:32;10.93;;;3.13;;
13793;SDS011;31160;49.500;7.772;2024-02-21T04:31:59;11.73;;;3.57;;
13793;SDS011;31160;49.500;7.772;2024-02-21T04:34:28;11.57;;;3.10;;
13793;SDS011;31160;49.500;7.772;2024-02-21T04:36:55;11.00;;;3.20;;
13793;SDS011;31160;49.500;7.772;2024-02-21T04:39:22;8.67;;;2.67;;
13793;SDS011;31160;49.500;7.772;2024-02-21T04:41:49;14.23;;;2.97;;
13793;SDS011;31160;49.500;7.772;2024-02-21T04:44:15;6.40;;;2.73;;
13793;SDS011;31160;49.500;7.772;2024-02-21T04:46:42;10.37;;;2.83;;
13793;SDS011;31160;49.500;7.772;2024-02-21T04:49:09;10.97;;;2.97;;
13793;SDS011;31160;49.500;7.772;2024-02-21T04:51:36;8.70;;;2.80;;
13793;SDS011;31160;49.500;7.772;2024-02-21T04:54:03;11.40;;;2.90;;
13793;SDS011;31160;49.500;7.772;2024-02-21T04:56:30;10.43;;;3.57;;
13793;SDS011;31160;49.500;7.772;2024-02-21T04:58:56;10.70;;;3.17;;
13793;SDS011;31160;49.500;7.772;2024-02-21T05:01:23;9.07;;;2.60;;
13793;SDS011;31160;49.500;7.772;2024-02-21T05:03:50;11.33;;;3.60;;
13793;SDS011;31160;49.500;7.772;2024-02-21T05:06:17;10.27;;;3.67;;
13793;SDS011;31160;49.500;7.772;2024-02-21T05:08:45;8.27;;;2.67;;
13793;SDS011;31160;49.500;7.772;2024-02-21T05:11:11;9.00;;;3.23;;
13793;SDS011;31160;49.500;7.772;2024-02-21T05:13:38;8.10;;;2.70;;
13793;SDS011;31160;49.500;7.772;2024-02-21T05:16:05;9.70;;;3.37;;
13793;SDS011;31160;49.500;7.772;2024-02-21T05:18:32;9.63;;;3.30;;
13793;SDS011;31160;49.500;7.772;2024-02-21T05:21:01;11.93;;;3.30;;
13793;SDS011;31160;49.500;7.772;2024-02-21T05:23:28;9.00;;;3.27;;
13793;SDS011;31160;49.500;7.772;2024-02-21T05:25:54;12.30;;;3.73;;
13793;SDS011;31160;49.500;7.772;2024-02-21T05:28:21;8.53;;;3.03;;
13793;SDS011;31160;49.500;7.772;2024-02-21T05:30:48;14.13;;;3.20;;
13793;SDS011;31160;49.500;7.772;2024-02-21T05:33:15;8.27;;;2.93;;
13793;SDS011;31160;49.500;7.772;2024-02-21T05:35:48;11.10;;;3.27;;
13793;SDS011;31160;49.500;7.772;2024-02-21T05:38:15;9.07;;;3.30;;
13793;SDS011;31160;49.500;7.772;2024-02-21T05:40:41;11.93;;;3.27;;
13793;SDS011;31160;49.500;7.772;2024-02-21T05:43:09;14.70;;;4.47;;
13793;SDS011;31160;49.500;7.772;2024-02-21T05:45:35;9.23;;;2.80;;
13793;SDS011;31160;49.500;7.772;2024-02-21T05:48:03;13.67;;;3.53;;
13793;SDS011;31160;49.500;7.772;2024-02-21T05:50:30;10.07;;;3.67;;
13793;SDS011;31160;49.500;7.772;2024-02-21T05:52:58;11.13;;;3.10;;
13793;SDS011;31160;49.500;7.772;2024-02-21T05:55:25;9.73;;;2.93;;
13793;SDS011;31160;49.500;7.772;2024-02-21T05:57:55;10.50;;;3.50;;
13793;SDS011;31160;49.500;7.772;2024-02-21T06:00:22;9.47;;;3.50;;
13793;SDS011;31160;49.500;7.772;2024-02-21T06:02:49;10.03;;;3.93;;
13793;SDS011;31160;49.500;7.772;2024-02-21T06:05:16;11.37;;;3.43;;
13793;SDS011;31160;49.500;7.772;2024-02-21T06:07:42;8.80;;;3.13;;
13793;SDS011;31160;49.500;7.772;2024-02-21T06:10:09;11.60;;;4.33;;
13793;SDS011;31160;49.500;7.772;2024-02-21T06:12:36;9.30;;;3.10;;
13793;SDS011;31160;49.500;7.772;2024-02-21T06:15:03;16.00;;;3.70;;
13793;SDS011;31160;49.500;7.772;2024-02-21T06:17:30;11.70;;;3.03;;
13793;SDS011;31160;49.500;7.772;2024-02-21T06:19:57;9.83;;;3.50;;
13793;SDS011;31160;49.500;7.772;2024-02-21T06:22:24;10.23;;;2.87;;
13793;SDS011;31160;49.500;7.772;2024-02-21T06:24:51;6.80;;;2.60;;
13793;SDS011;31160;49.500;7.772;2024-02-21T06:27:19;9.27;;;2.80;;
13793;SDS011;31160;49.500;7.772;2024-02-21T06:29:46;9.33;;;3.27;;
13793;SDS011;31160;49.500;7.772;2024-02-21T06:32:13;10.87;;;2.97;;
13793;SDS011;31160;49.500;7.772;2024-02-21T06:34:39;8.70;;;3.13;;
13793;SDS011;31160;49.500;7.772;2024-02-21T06:37:06;9.17;;;3.23;;
13793;SDS011;31160;49.500;7.772;2024-02-21T06:39:34;7.43;;;3.00;;
13793;SDS011;31160;49.500;7.772;2024-02-21T06:42:03;12.37;;;3.33;;
13793;SDS011;31160;49.500;7.772;2024-02-21T06:44:30;10.17;;;2.97;;
13793;SDS011;31160;49.500;7.772;2024-02-21T06:46:58;10.93;;;3.00;;
13793;SDS011;31160;49.500;7.772;2024-02-21T06:49:25;12.00;;;3.00;;
13793;SDS011;31160;49.500;7.772;2024-02-21T06:51:52;13.53;;;3.70;;
13793;SDS011;31160;49.500;7.772;2024-02-21T06:54:19;9.27;;;2.50;;
13793;SDS011;31160;49.500;7.772;2024-02-21T06:56:46;7.93;;;2.90;;
13793;SDS011;31160;49.500;7.772;2024-02-21T06:59:13;6.90;;;2.70;;
13793;SDS011;31160;49.500;7.772;2024-02-21T07:01:47;11.43;;;3.00;;
13793;SDS011;31160;49.500;7.772;2024-02-21T07:04:15;9.80;;;2.70;;
13793;SDS011;31160;49.500;7.772;2024-02-21T07:06:42;10.77;;;3.00;;
13793;SDS011;31160;49.500;7.772;2024-02-21T07:09:09;8.20;;;2.60;;
13793;SDS011;31160;49.500;7.772;2024-02-21T07:11:36;12.17;;;2.90;;
13793;SDS011;31160;49.500;7.772;2024-02-21T07:14:03;6.43;;;2.73;;
13793;SDS011;31160;49.500;7.772;2024-02-21T07:16:30;7.73;;;2.63;;
13793;SDS011;31160;49.500;7.772;2024-02-21T07:18:58;8.40;;;2.57;;
13793;SDS011;31160;49.500;7.772;2024-02-21T07:21:26;9.70;;;2.73;;
13793;SDS011;31160;49.500;7.772;2024-02-21T07:23:52;13.47;;;3.27;;
13793;SDS011;31160;49.500;7.772;2024-02-21T07:26:19;12.13;;;3.10;;
13793;SDS011;31160;49.500;7.772;2024-02-21T07:28:46;7.57;;;2.17;;
13793;SDS011;31160;49.500;7.772;2024-02-21T07:31:13;11.03;;;2.77;;
13793;SDS011;31160;49.500;7.772;2024-02-21T07:33:40;8.83;;;3.07;;
13793;SDS011;31160;49.500;7.772;2024-02-21T07:36:07;7.87;;;2.93;;
13793;SDS011;31160;49.500;7.772;2024-02-21T07:38:36;10.10;;;2.87;;
13793;SDS011;31160;49.500;7.772;2024-02-21T07:41:03;15.83;;;3.77;;
13793;SDS011;31160;49.500;7.772;2024-02-21T07:43:30;10.00;;;2.77;;
13793;SDS011;31160;49.500;7.772;2024-02-21T07:45:57;13.80;;;3.10;;
13793;SDS011;31160;49.500;7.772;2024-02-21T07:48:24;10.13;;;3.03;;
13793;SDS011;31160;49.500;7.772;2024-02-21T07:50:51;10.77;;;3.10;;
13793;SDS011;31160;49.500;7.772;2024-02-21T07:53:17;14.23;;;3.47;;
13793;SDS011;31160;49.500;7.772;2024-02-21T07:55:45;10.33;;;3.80;;
13793;SDS011;31160;49.500;7.772;2024-02-21T07:58:12;9.17;;;3.00;;
13793;SDS011;31160;49.500;7.772;2024-02-21T08:00:39;10.10;;;2.87;;
13793;SDS011;31160;49.500;7.772;2024-02-21T08:03:06;11.57;;;2.97;;
13793;SDS011;31160;49.500;7.772;2024-02-21T08:05:34;7.67;;;2.40;;
13793;SDS011;31160;49.500;7.772;2024-02-21T08:08:02;12.27;;;3.20;;
13793;SDS011;31160;49.500;7.772;2024-02-21T08:10:30;11.57;;;3.73;;
13793;SDS011;31160;49.500;7.772;2024-02-21T08:12:56;9.23;;;3.87;;
13793;SDS011;31160;49.500;7.772;2024-02-21T08:15:23;24.00;;;8.97;;
13793;SDS011;31160;49.500;7.772;2024-02-21T08:17:55;13.63;;;5.20;;
13793;SDS011;31160;49.500;7.772;2024-02-21T08:20:26;11.67;;;3.83;;
13793;SDS011;31160;49.500;7.772;2024-02-21T08:22:53;10.13;;;2.90;;
13793;SDS011;31160;49.500;7.772;2024-02-21T08:25:20;9.53;;;3.23;;
13793;SDS011;31160;49.500;7.772;2024-02-21T08:27:47;7.43;;;3.13;;
13793;SDS011;31160;49.500;7.772;2024-02-21T08:30:14;8.57;;;2.60;;
13793;SDS011;31160;49.500;7.772;2024-02-21T08:32:41;13.60;;;3.50;;
13793;SDS011;31160;49.500;7.772;2024-02-21T08:35:08;8.93;;;2.97;;
13793;SDS011;31160;49.500;7.772;2024-02-21T08:37:35;12.13;;;2.73;;
13793;SDS011;31160;49.500;7.772;2024-02-21T08:40:02;8.13;;;3.00;;
13793;SDS011;31160;49.500;7.772;2024-02-21T08:42:40;13.17;;;3.13;;
13793;SDS011;31160;49.500;7.772;2024-02-21T08:45:07;10.60;;;2.93;;
13793;SDS011;31160;49.500;7.772;2024-02-21T08:47:34;9.00;;;2.70;;
13793;SDS011;31160;49.500;7.772;2024-02-21T08:50:04;7.93;;;2.60;;
13793;SDS011;31160;49.500;7.772;2024-02-21T08:52:44;13.23;;;3.10;;
13793;SDS011;31160;49.500;7.772;2024-02-21T08:55:11;8.97;;;2.83;;
13793;SDS011;31160;49.500;7.772;2024-02-21T08:57:38;8.80;;;3.17;;
13793;SDS011;31160;49.500;7.772;2024-02-21T09:00:05;13.80;;;3.10;;
13793;SDS011;31160;49.500;7.772;2024-02-21T09:02:37;10.00;;;3.27;;
13793;SDS011;31160;49.500;7.772;2024-02-21T09:05:06;6.67;;;2.73;;
13793;SDS011;31160;49.500;7.772;2024-02-21T09:07:33;12.60;;;3.47;;
13793;SDS011;31160;49.500;7.772;2024-02-21T09:10:00;8.77;;;2.87;;
13793;SDS011;31160;49.500;7.772;2024-02-21T09:12:27;14.77;;;3.07;;
13793;SDS011;31160;49.500;7.772;2024-02-21T09:14:54;11.80;;;3.07;;
13793;SDS011;31160;49.500;7.772;2024-02-21T09:17:21;10.67;;;2.90;;
13793;SDS011;31160;49.500;7.772;2024-02-21T09:19:47;12.70;;;3.23;;
13793;SDS011;31160;49.500;7.772;2024-02-21T09:22:14;8.87;;;2.63;;
13793;SDS011;31160;49.500;7.772;2024-02-21T09:24:41;10.73;;;2.87;;
13793;SDS011;31160;49.500;7.772;2024-02-21T09:27:08;11.30;;;3.57;;
13793;SDS011;31160;49.500;7.772;2024-02-21T09:29:35;9.00;;;3.20;;
13793;SDS011;31160;49.500;7.772;2024-02-21T09:32:02;11.10;;;2.77;;
13793;SDS011;31160;49.500;7.772;2024-02-21T09:34:29;9.60;;;2.93;;
13793;SDS011;31160;49.500;7.772;2024-02-21T09:36:57;14.87;;;3.00;;
13793;SDS011;31160;49.500;7.772;2024-02-21T09:39:24;7.77;;;2.77;;
13793;SDS011;31160;49.500;7.772;2024-02-21T09:41:53;12.07;;;3.03;;
13793;SDS011;31160;49.500;7.772;2024-02-21T09:44:26;10.33;;;3.10;;
13793;SDS011;31160;49.500;7.772;2024-02-21T09:47:02;8.67;;;2.63;;
13793;SDS011;31160;49.500;7.772;2024-02-21T09:49:34;8.10;;;2.77;;
13793;SDS011;31160;49.500;7.772;2024-02-21T09:52:05;7.90;;;2.47;;
13793;SDS011;31160;49.500;7.772;2024-02-21T09:54:33;10.13;;;2.87;;
13793;SDS011;31160;49.500;7.772;2024-02-21T09:57:01;10.87;;;2.93;;
13793;SDS011;31160;49.500;7.772;2024-02-21T09:59:32;9.00;;;2.97;;
13793;SDS011;31160;49.500;7.772;2024-02-21T10:01:59;10.60;;;2.70;;
13793;SDS011;31160;49.500;7.772;2024-02-21T10:04:29;11.63;;;2.80;;
13793;SDS011;31160;49.500;7.772;2024-02-21T10:06:57;10.70;;;2.70;;
13793;SDS011;31160;49.500;7.772;2024-02-21T10:09:24;7.97;;;2.37;;
13793;SDS011;31160;49.500;7.772;2024-02-21T10:11:56;8.63;;;2.23;;
13793;SDS011;31160;49.500;7.772;2024-02-21T10:14:34;12.10;;;2.40;;
13793;SDS011;31160;49.500;7.772;2024-02-21T10:17:00;6.50;;;2.17;;
13793;SDS011;31160;49.500;7.772;2024-02-21T10:19:29;7.87;;;2.10;;
13793;SDS011;31160;49.500;7.772;2024-02-21T10:22:03;10.53;;;2.37;;
13793;SDS011;31160;49.500;7.772;2024-02-21T10:24:31;7.10;;;1.90;;
13793;SDS011;31160;49.500;7.772;2024-02-21T10:27:08;8.63;;;2.50;;
13793;SDS011;31160;49.500;7.772;2024-02-21T10:29:38;8.23;;;2.20;;
13793;SDS011;31160;49.500;7.772;2024-02-21T10:34:33;7.50;;;2.27;;
13793;SDS011;31160;49.500;7.772;2024-02-21T10:37:05;10.07;;;2.37;;
13793;SDS011;31160;49.500;7.772;2024-02-21T10:39:33;14.23;;;2.57;;
13793;SDS011;31160;49.500;7.772;2024-02-21T10:42:04;9.40;;;2.30;;
13793;SDS011;31160;49.500;7.772;2024-02-21T10:44:32;6.83;;;2.30;;
13793;SDS011;31160;49.500;7.772;2024-02-21T10:47:00;8.87;;;2.83;;
13793;SDS011;31160;49.500;7.772;2024-02-21T10:49:33;9.63;;;2.33;;
13793;SDS011;31160;49.500;7.772;2024-02-21T10:52:13;7.33;;;1.87;;
13793;SDS011;31160;49.500;7.772;2024-02-21T10:54:44;8.10;;;2.40;;
13793;SDS011;31160;49.500;7.772;2024-02-21T10:57:16;6.37;;;1.87;;
13793;SDS011;31160;49.500;7.772;2024-02-21T10:59:45;7.63;;;2.70;;
13793;SDS011;31160;49.500;7.772;2024-02-21T11:02:14;8.03;;;2.23;;
13793;SDS011;31160;49.500;7.772;2024-02-21T11:04:41;7.97;;;2.10;;
13793;SDS011;31160;49.500;7.772;2024-02-21T11:07:10;6.63;;;1.97;;
13793;SDS011;31160;49.500;7.772;2024-02-21T11:09:37;6.63;;;1.83;;
13793;SDS011;31160;49.500;7.772;2024-02-21T11:12:05;11.83;;;2.20;;
13793;SDS011;31160;49.500;7.772;2024-02-21T11:14:33;8.13;;;2.33;;
13793;SDS011;31160;49.500;7.772;2024-02-21T11:17:18;10.60;;;2.60;;
13793;SDS011;31160;49.500;7.772;2024-02-21T11:19:46;9.60;;;2.07;;
13793;SDS011;31160;49.500;7.772;2024-02-21T11:22:14;6.57;;;2.50;;
13793;SDS011;31160;49.500;7.772;2024-02-21T11:24:43;9.47;;;2.73;;
13793;SDS011;31160;49.500;7.772;2024-02-21T11:27:14;6.67;;;1.70;;
13793;SDS011;31160;49.500;7.772;2024-02-21T11:29:55;8.70;;;2.70;;
13793;SDS011;31160;49.500;7.772;2024-02-21T11:32:23;5.83;;;1.73;;
13793;SDS011;31160;49.500;7.772;2024-02-21T11:34:55;9.13;;;2.53;;
13793;SDS011;31160;49.500;7.772;2024-02-21T11:37:30;7.10;;;2.13;;
13793;SDS011;31160;49.500;7.772;2024-02-21T11:40:03;4.97;;;1.93;;
13793;SDS011;31160;49.500;7.772;2024-02-21T11:42:30;7.20;;;1.97;;
13793;SDS011;31160;49.500;7.772;2024-02-21T11:44:57;10.33;;;2.30;;
13793;SDS011;31160;49.500;7.772;2024-02-21T11:47:28;6.10;;;1.60;;
13793;SDS011;31160;49.500;7.772;2024-02-21T11:49:55;8.17;;;1.47;;
13793;SDS011;31160;49.500;7.772;2024-02-21T11:52:23;5.00;;;1.43;;
13793;SDS011;31160;49.500;7.772;2024-02-21T11:54:52;9.43;;;1.97;;
13793;SDS011;31160;49.500;7.772;2024-02-21T11:57:21;5.03;;;1.50;;
13793;SDS011;31160;49.500;7.772;2024-02-21T11:59:48;6.00;;;1.83;;
13793;SDS011;31160;49.500;7.772;2024-02-21T12:02:19;5.53;;;1.60;;
13793;SDS011;31160;49.500;7.772;2024-02-21T12:04:46;4.50;;;1.40;;
13793;SDS011;31160;49.500;7.772;2024-02-21T12:07:14;11.63;;;2.13;;
13793;SDS011;31160;49.500;7.772;2024-02-21T12:09:41;11.00;;;2.20;;
13793;SDS011;31160;49.500;7.772;2024-02-21T12:12:08;6.07;;;1.33;;
13793;SDS011;31160;49.500;7.772;2024-02-21T12:14:35;6.93;;;2.07;;
13793;SDS011;31160;49.500;7.772;2024-02-21T12:17:02;6.77;;;2.00;;
13793;SDS011;31160;49.500;7.772;2024-02-21T12:19:33;8.57;;;1.77;;
13793;SDS011;31160;49.500;7.772;2024-02-21T12:22:01;5.87;;;1.70;;
13793;SDS011;31160;49.500;7.772;2024-02-21T12:24:32;6.40;;;1.90;;
13793;SDS011;31160;49.500;7.772;2024-02-21T12:26:59;6.97;;;1.67;;
13793;SDS011;31160;49.500;7.772;2024-02-21T12:29:26;9.33;;;2.03;;
13793;SDS011;31160;49.500;7.772;2024-02-21T12:31:54;6.40;;;1.43;;
13793;SDS011;31160;49.500;7.772;2024-02-21T12:34:23;5.43;;;1.90;;
13793;SDS011;31160;49.500;7.772;2024-02-21T12:37:04;5.30;;;1.80;;
13793;SDS011;31160;49.500;7.772;2024-02-21T12:39:31;4.40;;;1.40;;
13793;SDS011;31160;49.500;7.772;2024-02-21T12:41:58;5.17;;;1.40;;
13793;SDS011;31160;49.500;7.772;2024-02-21T12:44:26;7.57;;;1.77;;
13793;SDS011;31160;49.500;7.772;2024-02-21T12:46:53;4.67;;;1.53;;
13793;SDS011;31160;49.500;7.772;2024-02-21T12:49:21;7.70;;;1.77;;
13793;SDS011;31160;49.500;7.772;2024-02-21T12:51:49;6.40;;;1.73;;
13793;SDS011;31160;49.500;7.772;2024-02-21T12:54:15;5.67;;;1.63;;
13793;SDS011;31160;49.500;7.772;2024-02-21T12:56:42;8.50;;;1.93;;
13793;SDS011;31160;49.500;7.772;2024-02-21T12:59:09;7.03;;;1.80;;
13793;SDS011;31160;49.500;7.772;2024-02-21T13:01:36;11.30;;;1.80;;
13793;SDS011;31160;49.500;7.772;2024-02-21T13:04:04;5.93;;;1.47;;
13793;SDS011;31160;49.500;7.772;2024-02-21T13:06:32;5.93;;;1.30;;
13793;SDS011;31160;49.500;7.772;2024-02-21T13:08:59;6.43;;;1.63;;
13793;SDS011;31160;49.500;7.772;2024-02-21T13:11:29;5.47;;;1.80;;
13793;SDS011;31160;49.500;7.772;2024-02-21T13:13:58;4.17;;;1.67;;
13793;SDS011;31160;49.500;7.772;2024-02-21T13:16:25;6.57;;;1.83;;
13793;SDS011;31160;49.500;7.772;2024-02-21T13:18:53;5.80;;;1.80;;
13793;SDS011;31160;49.500;7.772;2024-02-21T13:21:20;6.40;;;1.40;;
13793;SDS011;31160;49.500;7.772;2024-02-21T13:23:47;6.30;;;1.47;;
13793;SDS011;31160;49.500;7.772;2024-02-21T13:26:14;6.73;;;1.47;;
13793;SDS011;31160;49.500;7.772;2024-02-21T13:28:41;9.43;;;1.67;;
13793;SDS011;31160;49.500;7.772;2024-02-21T13:31:11;14.93;;;1.70;;
13793;SDS011;31160;49.500;7.772;2024-02-21T13:33:38;6.83;;;1.80;;
13793;SDS011;31160;49.500;7.772;2024-02-21T13:36:05;4.60;;;1.50;;
13793;SDS011;31160;49.500;7.772;2024-02-21T13:38:32;5.83;;;1.50;;
13793;SDS011;31160;49.500;7.772;2024-02-21T13:40:58;5.30;;;1.73;;
13793;SDS011;31160;49.500;7.772;2024-02-21T13:43:27;3.97;;;1.40;;
13793;SDS011;31160;49.500;7.772;2024-02-21T13:46:00;5.87;;;1.47;;
13793;SDS011;31160;49.500;7.772;2024-02-21T13:48:35;6.20;;;2.20;;
13793;SDS011;31160;49.500;7.772;2024-02-21T13:51:02;4.13;;;1.50;;
13793;SDS011;31160;49.500;7.772;2024-02-21T13:53:29;8.93;;;1.80;;
13793;SDS011;31160;49.500;7.772;2024-02-21T13:55:56;5.33;;;1.13;;
13793;SDS011;31160;49.500;7.772;2024-02-21T13:58:23;6.33;;;1.63;;
13793;SDS011;31160;49.500;7.772;2024-02-21T14:00:51;6.20;;;1.60;;
13793;SDS011;31160;49.500;7.772;2024-02-21T14:03:19;4.50;;;1.60;;
13793;SDS011;31160;49.500;7.772;2024-02-21T14:05:46;2.70;;;1.47;;
13793;SDS011;31160;49.500;7.772;2024-02-21T14:08:14;6.83;;;1.40;;
13793;SDS011;31160;49.500;7.772;2024-02-21T14:10:42;5.67;;;1.30;;
13793;SDS011;31160;49.500;7.772;2024-02-21T14:13:09;6.03;;;1.77;;
13793;SDS011;31160;49.500;7.772;2024-02-21T14:15:36;5.80;;;1.40;;
13793;SDS011;31160;49.500;7.772;2024-02-21T14:18:03;6.57;;;1.60;;
13793;SDS011;31160;49.500;7.772;2024-02-21T14:20:36;7.03;;;1.87;;
13793;SDS011;31160;49.500;7.772;2024-02-21T14:23:03;7.33;;;1.70;;
13793;SDS011;31160;49.500;7.772;2024-02-21T14:25:31;5.93;;;1.83;;
13793;SDS011;31160;49.500;7.772;2024-02-21T14:27:59;7.73;;;2.07;;
13793;SDS011;31160;49.500;7.772;2024-02-21T14:30:29;4.07;;;2.47;;
13793;SDS011;31160;49.500;7.772;2024-02-21T14:32:55;5.83;;;1.87;;
13793;SDS011;31160;49.500;7.772;2024-02-21T14:35:22;5.57;;;2.00;;
13793;SDS011;31160;49.500;7.772;2024-02-21T14:37:50;3.80;;;1.60;;
13793;SDS011;31160;49.500;7.772;2024-02-21T14:40:17;6.77;;;1.63;;
13793;SDS011;31160;49.500;7.772;2024-02-21T14:42:45;9.20;;;1.53;;
13793;SDS011;31160;49.500;7.772;2024-02-21T14:45:12;5.00;;;1.40;;
13793;SDS011;31160;49.500;7.772;2024-02-21T14:47:40;3.87;;;1.20;;